createdAt,value
2024-03-14T00:02:13.182Z,100437.63
2024-03-14T00:05:16.933Z,100433.81
2024-03-14T00:08:19.843Z,100439.59
2024-03-14T00:11:22.659Z,100433.38
2024-03-14T00:14:25.364Z,100437.41
2024-03-14T00:17:28.077Z,100443.63
2024-03-14T00:20:30.807Z,100437.09
2024-03-14T00:23:33.441Z,100438.88
2024-03-14T00:26:36.103Z,100436.56
2024-03-14T00:29:38.770Z,100427.56
2024-03-14T00:32:41.484Z,100427.16
2024-03-14T00:35:44.192Z,100428.00
2024-03-14T00:38:47.782Z,100430.59
2024-03-14T00:41:51.413Z,100425.38
2024-03-14T00:44:54.134Z,100421.19
2024-03-14T00:47:57.544Z,100423.59
2024-03-14T00:51:00.660Z,100412.19
2024-03-14T00:54:05.655Z,100407.91
2024-03-14T00:57:08.440Z,100412.56
2024-03-14T01:00:14.316Z,100401.84
2024-03-14T01:03:18.355Z,100410.69
2024-03-14T01:06:21.760Z,100403.63
2024-03-14T01:09:26.920Z,100407.75
2024-03-14T01:12:29.886Z,100401.09
2024-03-14T01:15:32.580Z,100399.69
2024-03-14T01:18:35.620Z,100394.25
2024-03-14T01:21:38.955Z,100400.78
2024-03-14T01:24:41.743Z,100388.84
2024-03-14T01:27:44.770Z,100389.53
2024-03-14T01:30:47.509Z,100388.75
2024-03-14T01:33:51.560Z,100391.63
2024-03-14T01:36:54.264Z,100388.66
2024-03-14T01:39:57.226Z,100383.63
2024-03-14T01:42:59.903Z,100381.16
2024-03-14T01:46:03.752Z,100376.72
2024-03-14T01:49:07.239Z,100375.97
2024-03-14T01:52:10.006Z,100372.22
2024-03-14T01:55:12.791Z,100366.41
2024-03-14T01:58:16.421Z,100344.94
2024-03-14T02:01:19.169Z,100340.03
2024-03-14T02:04:21.882Z,100331.34
2024-03-14T02:07:24.870Z,100321.88
2024-03-14T02:10:27.723Z,100319.19
2024-03-14T02:13:30.703Z,100307.84
2024-03-14T02:16:33.519Z,100292.09
2024-03-14T02:19:37.315Z,100282.66
2024-03-14T02:22:40.417Z,100267.66
2024-03-14T02:25:44.072Z,100253.81
2024-03-14T02:28:47.044Z,100232.09
2024-03-14T02:31:52.351Z,100225.59
2024-03-14T02:34:55.045Z,100215.38
2024-03-14T02:37:57.710Z,100189.94
2024-03-14T02:41:00.387Z,100183.59
2024-03-14T02:44:03.254Z,100170.56
2024-03-14T02:47:08.563Z,100160.88
2024-03-14T02:50:11.336Z,100149.47
2024-03-14T02:53:14.904Z,100143.34
2024-03-14T02:56:17.572Z,100137.31
2024-03-14T02:59:20.372Z,100124.06
2024-03-14T03:02:23.900Z,100116.91
2024-03-14T03:05:26.865Z,100102.22
2024-03-14T03:08:29.555Z,100088.00
2024-03-14T03:11:33.376Z,100085.97
2024-03-14T03:14:36.888Z,100079.06
2024-03-14T03:17:41.044Z,100066.78
2024-03-14T03:20:43.805Z,100055.28
2024-03-14T03:23:46.493Z,100046.59
2024-03-14T03:26:48.268Z,100037.84
2024-03-14T03:29:50.800Z,100028.41
2024-03-14T03:32:53.657Z,100011.22
2024-03-14T03:35:56.471Z,100009.28
2024-03-14T03:38:58.365Z,99990.84
2024-03-14T03:42:01.313Z,99980.09
2024-03-14T03:45:10.762Z,99976.38
2024-03-14T03:48:13.608Z,99972.03
2024-03-14T03:51:15.471Z,99968.56
2024-03-14T03:54:19.994Z,99967.00
2024-03-14T03:57:21.785Z,99957.81
2024-03-14T04:00:35.526Z,99957.06
2024-03-14T04:03:41.494Z,99942.59
2024-03-14T04:06:43.332Z,99943.69
2024-03-14T04:09:48.132Z,99932.38
2024-03-14T04:12:49.912Z,99932.91
2024-03-14T04:15:52.881Z,99935.88
2024-03-14T04:18:55.590Z,99924.25
2024-03-14T04:21:59.576Z,99920.56
2024-03-14T04:25:04.665Z,99910.69
2024-03-14T04:28:09.365Z,99912.50
2024-03-14T04:31:12.320Z,99896.66
2024-03-14T04:34:15.619Z,99899.06
2024-03-14T04:37:18.377Z,99892.72
2024-03-14T04:40:21.742Z,99894.44
2024-03-14T04:43:26.432Z,99888.31
2024-03-14T04:46:29.133Z,99889.06
2024-03-14T04:49:33.175Z,99893.41
2024-03-14T04:52:35.997Z,99876.56
2024-03-14T04:55:40.661Z,99866.94
2024-03-14T04:58:43.329Z,99872.97
2024-03-14T05:01:46.718Z,99868.84
2024-03-14T05:04:49.496Z,99868.06
2024-03-14T05:07:52.249Z,99853.66
2024-03-14T05:10:55.013Z,99852.72
2024-03-14T05:13:58.588Z,99852.72
2024-03-14T05:17:01.324Z,99855.44
2024-03-14T05:20:05.997Z,99847.38
2024-03-14T05:23:08.714Z,99846.53
2024-03-14T05:26:11.998Z,99832.47
2024-03-14T05:29:14.858Z,99836.16
2024-03-14T05:32:21.867Z,99825.91
2024-03-14T05:35:24.525Z,99821.38
2024-03-14T05:38:27.184Z,99810.81
2024-03-14T05:41:30.493Z,99807.25
2024-03-14T05:44:33.165Z,99808.66
2024-03-14T05:47:36.910Z,99796.41
2024-03-14T05:50:40.202Z,99793.56
2024-03-14T05:53:43.802Z,99796.03
2024-03-14T05:56:46.541Z,99790.22
2024-03-14T05:59:52.606Z,99790.97
2024-03-14T06:02:55.347Z,99786.16
2024-03-14T06:05:58.449Z,99781.72
2024-03-14T06:09:01.165Z,99785.75
2024-03-14T06:12:06.309Z,99786.22
2024-03-14T06:15:10.292Z,99787.84
2024-03-14T06:18:13.314Z,99782.47
2024-03-14T06:21:16.079Z,99788.69
2024-03-14T06:24:19.099Z,99799.72
2024-03-14T06:27:21.798Z,99794.22
2024-03-14T06:30:26.054Z,99809.22
2024-03-14T06:33:29.712Z,99810.00
2024-03-14T06:36:32.499Z,99810.84
2024-03-14T06:39:38.707Z,99812.41
2024-03-14T06:42:42.445Z,99808.69
2024-03-14T06:45:45.421Z,99799.63
2024-03-14T06:48:48.209Z,99800.72
2024-03-14T06:51:51.599Z,99802.50
2024-03-14T06:54:55.766Z,99806.44
2024-03-14T06:57:58.464Z,99813.63
2024-03-14T07:01:01.200Z,99810.66
2024-03-14T07:04:03.949Z,99822.19
2024-03-14T07:07:06.617Z,99816.31
2024-03-14T07:10:10.205Z,99824.97
2024-03-14T07:13:13.470Z,99830.25
2024-03-14T07:16:17.287Z,99830.94
2024-03-14T07:19:22.636Z,99835.91
2024-03-14T07:22:26.294Z,99838.06
2024-03-14T07:25:29.032Z,99842.38
2024-03-14T07:28:33.040Z,99844.09
2024-03-14T07:31:35.860Z,99845.31
2024-03-14T07:34:38.608Z,99847.69
2024-03-14T07:37:41.271Z,99853.63
2024-03-14T07:40:44.430Z,99848.56
2024-03-14T07:43:47.666Z,99848.63
2024-03-14T07:46:51.596Z,99857.00
2024-03-14T07:49:54.331Z,99866.03
2024-03-14T07:52:57.869Z,99870.91
2024-03-14T07:56:00.569Z,99876.09
2024-03-14T07:59:03.449Z,99880.13
2024-03-14T08:02:08.471Z,99890.91
2024-03-14T08:05:12.794Z,99891.44
2024-03-14T08:08:22.537Z,99891.28
2024-03-14T08:11:30.386Z,99902.19
2024-03-14T08:14:34.846Z,99909.50
2024-03-14T08:17:37.542Z,99923.78
2024-03-14T08:20:40.986Z,99925.13
2024-03-14T08:23:43.717Z,99934.34
2024-03-14T08:26:48.372Z,99941.56
2024-03-14T08:29:51.276Z,99948.53
2024-03-14T08:32:54.851Z,99962.31
2024-03-14T08:35:58.425Z,99967.19
2024-03-14T08:39:01.652Z,99975.81
2024-03-14T08:42:06.160Z,100005.28
2024-03-14T08:45:11.041Z,100035.06
2024-03-14T08:48:13.861Z,100053.31
2024-03-14T08:51:16.720Z,100076.44
2024-03-14T08:54:35.266Z,100114.94
2024-03-14T08:57:38.164Z,100147.16
2024-03-14T09:00:41.257Z,100162.94
2024-03-14T09:03:44.193Z,100182.72
2024-03-14T09:06:46.970Z,100202.22
2024-03-14T09:09:50.427Z,100232.81
2024-03-14T09:12:53.723Z,100254.19
2024-03-14T09:15:56.464Z,100256.00
2024-03-14T09:18:59.215Z,100270.84
2024-03-14T09:22:02.545Z,100301.09
2024-03-14T09:25:08.095Z,100307.50
2024-03-14T09:28:12.667Z,100331.53
2024-03-14T09:31:15.385Z,100339.84
2024-03-14T09:34:18.928Z,100338.75
2024-03-14T09:37:26.336Z,100360.84
2024-03-14T09:40:29.219Z,100371.69
2024-03-14T09:43:31.930Z,100377.44
2024-03-14T09:46:35.488Z,100383.50
2024-03-14T09:49:38.168Z,100380.47
2024-03-14T09:52:40.859Z,100425.19
2024-03-14T09:55:43.606Z,100374.78
2024-03-14T09:58:46.305Z,100379.19
2024-03-14T10:01:50.716Z,100372.25
2024-03-14T10:04:53.389Z,100370.16
2024-03-14T10:07:56.959Z,100378.19
2024-03-14T10:10:59.686Z,100376.53
2024-03-14T10:14:07.917Z,100383.41
2024-03-14T10:17:11.982Z,100380.25
2024-03-14T10:20:15.893Z,100377.03
2024-03-14T10:23:19.677Z,100373.72
2024-03-14T10:26:23.816Z,100372.88
2024-03-14T10:29:30.248Z,100370.28
2024-03-14T10:32:33.160Z,100364.53
2024-03-14T10:35:35.940Z,100370.47
2024-03-14T10:38:38.848Z,100366.25
2024-03-14T10:41:42.664Z,100363.00
2024-03-14T10:44:45.362Z,100361.94
2024-03-14T10:47:50.379Z,100368.50
2024-03-14T10:50:55.766Z,100370.41
2024-03-14T10:53:58.618Z,100370.34
2024-03-14T10:57:01.366Z,100371.72
2024-03-14T11:00:05.214Z,100364.38
2024-03-14T11:03:08.035Z,100365.00
2024-03-14T11:06:11.849Z,100358.63
2024-03-14T11:09:15.054Z,100358.03
2024-03-14T11:12:18.032Z,100356.94
2024-03-14T11:15:22.790Z,100360.94
2024-03-14T11:18:26.634Z,100354.38
2024-03-14T11:21:32.934Z,100358.78
2024-03-14T11:24:35.935Z,100359.84
2024-03-14T11:27:38.826Z,100350.28
2024-03-14T11:30:44.214Z,100362.75
2024-03-14T11:33:47.199Z,100353.19
2024-03-14T11:36:52.100Z,100350.88
2024-03-14T11:39:54.912Z,100351.94
2024-03-14T11:42:58.060Z,100345.75
2024-03-14T11:46:00.777Z,100346.66
2024-03-14T11:49:16.117Z,100345.50
2024-03-14T11:52:19.076Z,100349.16
2024-03-14T11:55:22.380Z,100342.75
2024-03-14T11:58:25.245Z,100342.66
2024-03-14T12:01:40.986Z,100331.72
2024-03-14T12:04:50.002Z,100336.78
2024-03-14T12:07:55.813Z,100335.72
2024-03-14T12:10:59.639Z,100332.72
2024-03-14T12:14:03.525Z,100335.28
2024-03-14T12:17:06.539Z,100335.97
2024-03-14T12:20:12.272Z,100330.28
2024-03-14T12:23:15.172Z,100331.34
2024-03-14T12:26:18.803Z,100327.63
2024-03-14T12:29:22.508Z,100326.97
2024-03-14T12:32:25.579Z,100326.41
2024-03-14T12:35:29.120Z,100327.81
2024-03-14T12:38:31.836Z,100328.50
2024-03-14T12:41:35.004Z,100319.94
2024-03-14T12:44:37.948Z,100319.09
2024-03-14T12:47:40.630Z,100320.56
2024-03-14T12:50:44.047Z,100314.50
2024-03-14T12:53:55.313Z,100308.59
2024-03-14T12:56:58.067Z,100307.63
2024-03-14T13:00:00.960Z,100311.38
2024-03-14T13:03:03.790Z,100298.31
2024-03-14T13:06:06.805Z,100292.56
2024-03-14T13:09:15.721Z,100297.22
2024-03-14T13:12:19.780Z,100298.31
2024-03-14T13:15:24.287Z,100294.38
2024-03-14T13:18:28.532Z,100290.41
2024-03-14T13:21:44.474Z,100292.84
2024-03-14T13:24:51.025Z,100295.03
2024-03-14T13:27:53.831Z,100289.34
2024-03-14T13:30:56.546Z,100288.47
2024-03-14T13:34:01.091Z,100290.41
2024-03-14T13:37:04.443Z,100287.03
2024-03-14T13:43:24.559Z,100285.56
2024-03-14T13:46:32.714Z,100290.31
2024-03-14T13:49:38.980Z,100282.31
2024-03-14T13:52:42.193Z,100289.56
2024-03-14T13:55:45.106Z,100295.13
2024-03-14T13:58:48.014Z,100296.06
2024-03-14T14:01:50.735Z,100293.81
2024-03-14T14:04:53.570Z,100295.84
2024-03-14T14:08:01.647Z,100288.69
2024-03-14T14:11:05.181Z,100293.97
2024-03-14T14:14:08.953Z,100292.28
2024-03-14T14:17:12.004Z,100289.59
2024-03-14T14:20:18.195Z,100284.41
2024-03-14T14:23:21.510Z,100280.28
2024-03-14T14:26:24.429Z,100278.97
2024-03-14T14:29:27.281Z,100285.41
2024-03-14T14:32:30.651Z,100279.72
2024-03-14T14:35:33.402Z,100274.13
2024-03-14T14:38:37.278Z,100274.97
2024-03-14T14:41:39.976Z,100268.69
2024-03-14T14:44:42.747Z,100273.28
2024-03-14T14:47:46.457Z,100264.72
2024-03-14T14:50:49.253Z,100262.81
2024-03-14T14:53:53.149Z,100267.94
2024-03-14T14:56:55.920Z,100261.50
2024-03-14T14:59:58.895Z,100265.38
2024-03-14T15:03:03.737Z,100261.72
2024-03-14T15:06:07.191Z,100258.47
2024-03-14T15:09:10.420Z,100255.91
2024-03-14T15:12:13.279Z,100246.38
2024-03-14T15:15:22.881Z,100249.28
2024-03-14T15:18:25.731Z,100244.19
2024-03-14T15:21:28.753Z,100250.25
2024-03-14T15:24:32.999Z,100245.28
2024-03-14T15:27:38.082Z,100238.97
2024-03-14T15:30:42.407Z,100242.25
2024-03-14T15:33:45.491Z,100246.75
2024-03-14T15:36:48.373Z,100241.75
2024-03-14T15:39:51.192Z,100237.28
2024-03-14T15:42:53.881Z,100232.09
2024-03-14T15:45:56.559Z,100230.41
2024-03-14T15:48:59.288Z,100226.66
2024-03-14T15:52:03.969Z,100229.78
2024-03-14T15:55:07.936Z,100218.91
2024-03-14T15:58:10.785Z,100224.56
2024-03-14T16:01:14.908Z,100224.41
2024-03-14T16:04:18.052Z,100221.25
2024-03-14T16:07:20.732Z,100220.28
2024-03-14T16:10:24.337Z,100225.94
2024-03-14T16:13:27.036Z,100229.91
2024-03-14T16:16:29.845Z,100231.56
2024-03-14T16:19:32.755Z,100220.53
2024-03-14T16:22:35.634Z,100224.97
2024-03-14T16:25:39.563Z,100227.75
2024-03-14T16:28:44.189Z,100217.09
2024-03-14T16:31:47.097Z,100222.41
2024-03-14T16:34:50.248Z,100212.03
2024-03-14T16:37:52.931Z,100215.09
2024-03-14T16:40:55.638Z,100214.81
2024-03-14T16:43:59.526Z,100205.47
2024-03-14T16:47:02.234Z,100204.44
2024-03-14T16:50:05.148Z,100212.72
2024-03-14T16:53:11.783Z,100198.94
2024-03-14T16:56:14.600Z,100202.69
2024-03-14T16:59:18.241Z,100200.78
2024-03-14T17:02:21.078Z,100197.59
2024-03-14T17:05:23.841Z,100191.66
2024-03-14T17:08:26.484Z,100195.88
2024-03-14T17:11:29.221Z,100195.34
2024-03-14T17:14:33.272Z,100189.72
2024-03-14T17:17:36.082Z,100184.31
2024-03-14T17:20:38.898Z,100187.22
2024-03-14T17:23:42.378Z,100180.94
2024-03-14T17:26:45.421Z,100178.84
2024-03-14T17:29:48.538Z,100179.97
2024-03-14T17:32:52.224Z,100174.69
2024-03-14T17:35:57.071Z,100176.41
2024-03-14T17:38:59.875Z,100175.47
2024-03-14T17:42:02.703Z,100164.31
2024-03-14T17:45:06.536Z,100157.25
2024-03-14T17:48:10.681Z,100148.19
2024-03-14T17:51:13.727Z,100148.84
2024-03-14T17:54:18.761Z,100141.13
2024-03-14T17:57:21.583Z,100133.53
2024-03-14T18:00:26.561Z,100130.75
2024-03-14T18:03:29.352Z,100122.69
2024-03-14T18:06:33.345Z,100123.44
2024-03-14T18:09:37.595Z,100118.16
2024-03-14T18:12:41.116Z,100104.44
2024-03-14T18:15:44.089Z,100103.22
2024-03-14T18:18:46.969Z,100104.44
2024-03-14T18:21:50.421Z,100098.97
2024-03-14T18:24:53.952Z,100103.06
2024-03-14T18:27:56.715Z,100099.16
2024-03-14T18:31:01.867Z,100099.00
2024-03-14T18:34:04.742Z,100087.59
2024-03-14T18:37:07.843Z,100085.81
2024-03-14T18:40:11.041Z,100077.59
2024-03-14T18:43:14.712Z,100074.69
2024-03-14T18:46:18.302Z,100079.91
2024-03-14T18:49:23.941Z,100086.44
2024-03-14T18:52:26.712Z,100085.88
2024-03-14T18:55:29.592Z,100088.97
2024-03-14T18:58:32.348Z,100081.34
2024-03-14T19:01:35.144Z,100092.09
2024-03-14T19:04:37.836Z,100101.34
2024-03-14T19:07:41.171Z,100086.13
2024-03-14T19:10:43.975Z,100086.50
2024-03-14T19:13:47.476Z,100079.63
2024-03-14T19:16:50.386Z,100085.28
2024-03-14T19:19:53.739Z,100091.22
2024-03-14T19:22:56.501Z,100085.47
2024-03-14T19:25:59.637Z,100092.56
2024-03-14T19:29:02.451Z,100087.94
2024-03-14T19:32:06.874Z,100077.75
2024-03-14T19:35:11.675Z,100083.50
2024-03-14T19:38:14.460Z,100086.50
2024-03-14T19:41:17.284Z,100073.69
2024-03-14T19:44:19.986Z,100075.94
2024-03-14T19:47:22.655Z,100075.75
2024-03-14T19:50:26.808Z,100071.88
2024-03-14T19:53:30.622Z,100057.56
2024-03-14T19:56:33.334Z,100065.75
2024-03-14T19:59:37.829Z,100054.91
2024-03-14T20:02:41.905Z,100048.19
2024-03-14T20:05:45.333Z,100043.47
2024-03-14T20:08:48.717Z,100049.13
2024-03-14T20:11:53.249Z,100039.50
2024-03-14T20:14:57.881Z,100036.09
2024-03-14T20:18:01.289Z,100034.03
2024-03-14T20:21:04.203Z,100024.88
2024-03-14T20:24:08.028Z,100033.09
2024-03-14T20:27:12.740Z,100027.03
2024-03-14T20:30:15.999Z,100022.88
2024-03-14T20:33:18.967Z,100020.81
2024-03-14T20:36:22.346Z,100020.63
2024-03-14T20:39:25.951Z,100004.03
2024-03-14T20:42:32.969Z,100001.19
2024-03-14T20:45:36.498Z,99996.66
2024-03-14T20:48:40.183Z,99992.97
2024-03-14T20:51:44.739Z,100000.81
2024-03-14T20:54:47.518Z,99986.75
2024-03-14T20:57:52.217Z,99977.41
2024-03-14T21:00:55.349Z,99975.81
2024-03-14T21:03:58.713Z,99967.78
2024-03-14T21:07:01.635Z,99968.97
2024-03-14T21:10:05.542Z,99951.50
2024-03-14T21:13:12.000Z,99946.69
2024-03-14T21:16:18.563Z,99942.41
2024-03-14T21:19:21.298Z,99931.66
2024-03-14T21:22:26.402Z,99928.06
2024-03-14T21:25:29.736Z,99922.28
2024-03-14T21:28:33.957Z,99917.09
2024-03-14T21:31:36.943Z,99907.28
2024-03-14T21:34:39.789Z,99912.38
2024-03-14T21:37:42.509Z,99909.84
2024-03-14T21:40:45.915Z,99912.75
2024-03-14T21:43:48.612Z,99907.56
2024-03-14T21:46:52.073Z,99899.81
2024-03-14T21:49:54.802Z,99892.38
2024-03-14T21:52:57.790Z,99886.25
2024-03-14T21:56:00.631Z,99879.56
2024-03-14T21:59:04.197Z,99875.81
2024-03-14T22:02:09.542Z,99868.63
2024-03-14T22:05:12.369Z,99862.59
2024-03-14T22:08:20.555Z,99857.41
2024-03-14T22:11:23.256Z,99846.09
2024-03-14T22:14:26.228Z,99851.38
2024-03-14T22:17:29.018Z,99843.72
2024-03-14T22:20:31.697Z,99839.78
2024-03-14T22:23:34.449Z,99821.56
2024-03-14T22:26:37.123Z,99827.31
2024-03-14T22:29:39.810Z,99815.56
2024-03-14T22:32:42.517Z,99813.56
2024-03-14T22:35:46.300Z,99813.00
2024-03-14T22:38:49.082Z,99805.81
2024-03-14T22:41:52.368Z,99787.25
2024-03-14T22:44:55.040Z,99791.78
2024-03-14T22:47:57.728Z,99796.28
2024-03-14T22:51:00.462Z,99791.84
2024-03-14T22:54:03.648Z,99786.34
2024-03-14T22:57:07.999Z,99789.59
2024-03-14T23:00:33.048Z,99780.38
2024-03-14T23:03:35.758Z,99771.66
2024-03-14T23:06:38.458Z,99763.75
2024-03-14T23:09:41.472Z,99761.09
2024-03-14T23:12:44.422Z,99744.84
2024-03-14T23:15:47.426Z,99734.81
2024-03-14T23:18:50.240Z,99729.00
2024-03-14T23:21:53.737Z,99719.75
2024-03-14T23:24:56.411Z,99714.66
2024-03-14T23:27:59.439Z,99707.16
2024-03-14T23:31:02.381Z,99692.69
2024-03-14T23:34:05.130Z,99683.09
2024-03-14T23:37:08.438Z,99681.09
2024-03-14T23:40:13.524Z,99681.28
2024-03-14T23:43:16.198Z,99665.75
2024-03-14T23:46:19.990Z,99668.00
2024-03-14T23:49:22.655Z,99662.28
2024-03-14T23:52:25.676Z,99654.00
2024-03-14T23:55:29.059Z,99640.72
2024-03-14T23:58:32.335Z,99630.47
